Time;durP1;ratioP1;P1;durP2;ratioP2;P2;SDS_P1;SDS_P2;PMS_P1;PMS_P2;Temp;Humidity;BMP_temperature;BMP_pressure;BME280_temperature;BME280_humidity;BME280_pressure;Samples;Min_cycle;Max_cycle;Signal;HPM_P1;HPM_P2
2022/03/19 11:47:02;;;;;;;6.13;1.50;;;27.60;38.70;;;;;;5511937;23;20494;-84
2022/03/19 11:49:49;;;;;;;4.23;1.80;;;27.50;38.20;;;;;;4976027;28;20552;-83
2022/03/19 11:53:02;;;;;;;2.77;1.67;;;27.50;37.80;;;;;;4976885;28;20447;-83
2022/03/19 11:55:29;;;;;;;1.63;1.20;;;27.40;39.00;;;;;;4976763;28;20529;-83
2022/03/19 11:57:59;;;;;;;2.23;1.50;;;27.30;39.30;;;;;;4976718;28;20443;-85
2022/03/19 12:00:27;;;;;;;4.90;1.37;;;27.30;39.10;;;;;;4976781;28;21013;-83
2022/03/19 12:03:10;;;;;;;2.30;1.33;;;27.30;39.10;;;;;;4977158;28;20445;-82
2022/03/19 12:05:38;;;;;;;2.13;1.40;;;27.40;39.00;;;;;;4976651;28;20508;-81
2022/03/19 12:08:08;;;;;;;2.77;1.30;;;27.40;38.40;;;;;;4976372;28;20450;-82
2022/03/19 12:10:54;;;;;;;7.97;1.90;;;27.30;38.40;;;;;;4976518;28;20442;-82
2022/03/19 12:13:42;;;;;;;2.77;1.37;;;27.30;37.30;;;;;;4976710;28;20441;-92
2022/03/19 12:16:12;;;;;;;2.30;1.40;;;27.30;36.20;;;;;;4976783;28;20841;-82
2022/03/19 12:18:53;;;;;;;2.80;1.20;;;27.20;36.80;;;;;;4976750;28;20473;-86
2022/03/19 12:21:22;;;;;;;1.80;1.40;;;27.20;37.20;;;;;;4976464;28;20576;-93
2022/03/19 12:24:09;;;;;;;2.50;1.00;;;27.20;37.00;;;;;;4976457;28;20877;-82
2022/03/19 12:26:39;;;;;;;2.50;1.23;;;27.20;37.00;;;;;;4976270;28;20461;-79
2022/03/19 12:29:07;;;;;;;1.43;1.03;;;27.20;38.50;;;;;;4976187;28;20456;-86
2022/03/19 12:31:36;;;;;;;3.23;1.30;;;27.20;39.00;;;;;;4976247;28;20453;-85
2022/03/19 12:34:05;;;;;;;2.33;1.13;;;27.20;38.90;;;;;;4976748;28;20457;-91
2022/03/19 12:36:32;;;;;;;2.97;1.80;;;27.30;39.30;;;;;;4976643;28;20445;-82
2022/03/19 12:39:03;;;;;;;2.70;1.30;;;27.20;37.40;;;;;;4976388;28;20452;-90
2022/03/19 12:41:32;;;;;;;2.80;1.20;;;27.20;37.40;;;;;;4976203;28;20555;-90
2022/03/19 12:44:01;;;;;;;2.67;1.33;;;27.20;37.20;;;;;;4975983;28;20468;-88
2022/03/19 12:46:29;;;;;;;2.13;1.33;;;27.30;37.50;;;;;;4975970;28;20456;-83
2022/03/19 12:49:05;;;;;;;1.80;1.40;;;27.30;37.60;;;;;;4975752;28;20488;-82
2022/03/19 12:51:33;;;;;;;2.43;1.10;;;27.30;37.30;;;;;;4975866;28;20787;-83
2022/03/19 12:54:00;;;;;;;3.10;1.10;;;27.30;36.90;;;;;;4975730;28;20473;-83
2022/03/19 12:56:28;;;;;;;1.80;1.30;;;27.30;37.20;;;;;;4975658;28;20908;-83
2022/03/19 12:58:57;;;;;;;3.00;1.20;;;27.30;37.20;;;;;;4975565;28;20504;-83
2022/03/19 13:01:29;;;;;;;2.07;1.37;;;27.30;37.00;;;;;;4976103;28;20494;-84
2022/03/19 13:03:57;;;;;;;2.93;1.40;;;27.30;37.30;;;;;;4976268;28;20425;-83
2022/03/19 13:06:30;;;;;;;1.93;1.03;;;27.30;36.60;;;;;;4975824;28;20481;-87
2022/03/19 13:08:57;;;;;;;2.63;1.50;;;27.30;37.10;;;;;;4975777;28;20847;-79
2022/03/19 13:11:24;;;;;;;4.87;1.00;;;27.30;38.30;;;;;;4975483;28;20528;-79
2022/03/19 13:13:51;;;;;;;1.30;1.10;;;27.40;38.30;;;;;;4975711;28;20446;-79
2022/03/19 13:16:29;;;;;;;2.30;1.10;;;27.20;37.70;;;;;;4975990;28;20500;-79
2022/03/19 13:19:01;;;;;;;2.33;1.13;;;27.20;37.90;;;;;;4975717;28;20449;-88
2022/03/19 13:21:31;;;;;;;2.60;0.90;;;27.20;37.90;;;;;;4977567;28;20493;-79
2022/03/19 13:23:59;;;;;;;1.87;1.30;;;27.10;37.60;;;;;;4979410;28;20535;-89
2022/03/19 13:26:27;;;;;;;1.23;0.90;;;27.10;37.50;;;;;;4977271;28;20489;-80
2022/03/19 13:29:06;;;;;;;3.87;1.40;;;27.30;37.50;;;;;;4976840;28;20445;-87
2022/03/19 13:31:37;;;;;;;1.03;0.90;;;27.20;37.60;;;;;;4979493;28;20438;-88
2022/03/19 13:34:05;;;;;;;1.73;0.80;;;27.20;37.50;;;;;;4977442;28;20445;-80
2022/03/19 13:36:35;;;;;;;1.20;0.70;;;27.10;37.70;;;;;;4975294;28;20441;-86
2022/03/19 13:39:02;;;;;;;1.87;1.10;;;27.10;38.00;;;;;;4975150;28;20488;-80
2022/03/19 13:41:34;;;;;;;1.40;0.90;;;27.10;38.00;;;;;;4975280;28;20496;-84
2022/03/19 13:44:02;;;;;;;1.10;0.80;;;27.10;38.10;;;;;;4975424;28;20441;-81
2022/03/19 13:46:29;;;;;;;1.30;0.90;;;27.10;38.30;;;;;;4975359;28;20437;-89
2022/03/19 13:49:14;;;;;;;7.30;0.97;;;27.10;38.50;;;;;;4974856;28;20547;-80
2022/03/19 13:51:47;;;;;;;2.40;1.10;;;27.10;38.60;;;;;;4975290;28;20484;-86
2022/03/19 13:54:14;;;;;;;1.10;0.80;;;27.10;38.80;;;;;;4974908;28;20448;-80
2022/03/19 13:56:56;;;;;;;1.83;1.20;;;27.10;38.90;;;;;;4974472;28;20446;-90
2022/03/19 13:59:33;;;;;;;1.20;0.93;;;27.10;39.40;;;;;;4975046;28;20448;-89
2022/03/19 14:02:04;;;;;;;2.30;0.80;;;27.10;39.00;;;;;;4975160;28;20818;-90
2022/03/19 14:04:35;;;;;;;2.10;0.97;;;27.10;39.30;;;;;;4975130;28;20448;-89
2022/03/19 14:07:03;;;;;;;2.23;1.00;;;27.00;39.40;;;;;;4974847;28;20444;-83
2022/03/19 14:09:30;;;;;;;2.23;0.90;;;27.00;39.90;;;;;;4975398;28;20445;-84
2022/03/19 14:11:56;;;;;;;1.67;1.07;;;27.00;38.90;;;;;;4975470;28;20449;-91
2022/03/19 14:14:23;;;;;;;2.40;1.10;;;27.00;39.20;;;;;;4974623;28;20940;-84
2022/03/19 14:16:59;;;;;;;4.00;1.40;;;26.90;36.60;;;;;;4974868;28;20441;-84
2022/03/19 14:19:26;;;;;;;2.53;1.20;;;26.90;35.90;;;;;;4974554;28;20946;-80
2022/03/19 14:21:53;;;;;;;1.77;1.00;;;26.80;38.80;;;;;;4974273;28;20982;-80
2022/03/19 14:24:23;;;;;;;2.13;1.47;;;26.80;39.10;;;;;;4974369;28;20452;-81
2022/03/19 14:26:51;;;;;;;1.30;0.90;;;26.60;37.80;;;;;;4975495;28;20512;-80
2022/03/19 14:29:18;;;;;;;1.43;0.83;;;26.50;38.70;;;;;;4974784;28;20461;-80
2022/03/19 14:31:45;;;;;;;1.30;1.00;;;26.60;38.80;;;;;;4975407;28;20517;-80
2022/03/19 14:34:13;;;;;;;1.93;1.27;;;26.70;38.80;;;;;;4974686;28;20448;-80
2022/03/19 14:36:39;;;;;;;1.30;1.20;;;26.70;38.70;;;;;;4975112;28;20454;-80
2022/03/19 14:39:06;;;;;;;4.43;1.73;;;26.80;38.70;;;;;;4974791;28;20457;-80
2022/03/19 14:41:36;;;;;;;1.53;1.33;;;26.70;38.50;;;;;;4975184;28;20821;-80
2022/03/19 14:44:04;;;;;;;1.83;1.00;;;26.70;38.50;;;;;;4974712;28;20449;-80
2022/03/19 14:46:31;;;;;;;1.60;0.90;;;26.60;38.40;;;;;;4974820;28;20445;-80
2022/03/19 14:48:58;;;;;;;1.40;0.90;;;26.60;38.60;;;;;;4974371;28;20477;-89
2022/03/19 14:51:25;;;;;;;8.20;1.27;;;26.60;38.70;;;;;;4974769;28;20453;-80
2022/03/19 14:53:54;;;;;;;2.03;1.07;;;26.60;38.20;;;;;;4974406;28;20448;-80
2022/03/19 14:56:21;;;;;;;1.37;1.10;;;26.60;38.50;;;;;;4975287;28;20452;-81
2022/03/19 14:58:50;;;;;;;3.00;1.77;;;26.50;38.60;;;;;;4974946;28;20476;-90
2022/03/19 15:01:18;;;;;;;1.93;1.30;;;26.30;35.90;;;;;;4975052;28;20563;-80
2022/03/19 15:03:45;;;;;;;1.53;0.90;;;26.20;37.00;;;;;;4974637;28;20453;-80
2022/03/19 15:06:13;;;;;;;2.10;1.40;;;26.30;38.30;;;;;;4974169;28;20453;-80
2022/03/19 15:08:40;;;;;;;1.83;1.23;;;26.30;38.50;;;;;;4978328;28;20797;-80
2022/03/19 15:11:06;;;;;;;2.13;0.90;;;26.40;38.60;;;;;;4978407;28;20449;-80
2022/03/19 15:13:34;;;;;;;1.97;1.30;;;26.40;38.60;;;;;;4978258;28;20445;-79
2022/03/19 15:16:02;;;;;;;1.70;1.13;;;26.30;38.40;;;;;;4978385;28;20939;-79
2022/03/19 15:18:29;;;;;;;1.20;0.90;;;26.40;38.70;;;;;;4978307;28;20969;-83
2022/03/19 15:20:57;;;;;;;1.77;0.97;;;26.40;38.90;;;;;;4978208;28;20511;-80
2022/03/19 15:23:24;;;;;;;5.80;1.90;;;26.40;39.00;;;;;;4978111;28;20446;-88
2022/03/19 15:25:51;;;;;;;2.33;1.30;;;26.20;36.80;;;;;;4977895;28;20449;-82
2022/03/19 15:28:18;;;;;;;4.30;2.30;;;26.10;36.30;;;;;;4977636;28;20803;-80
2022/03/19 15:30:45;;;;;;;5.30;1.57;;;26.10;35.80;;;;;;4977724;28;20536;-81
2022/03/19 15:33:13;;;;;;;4.70;1.47;;;26.00;36.30;;;;;;4977603;28;20453;-82
2022/03/19 15:35:40;;;;;;;4.27;1.60;;;25.90;37.20;;;;;;4977565;28;20450;-85
2022/03/19 15:38:09;;;;;;;2.13;1.73;;;25.90;37.50;;;;;;4977473;28;20460;-85
2022/03/19 15:40:36;;;;;;;2.80;1.47;;;25.80;35.40;;;;;;4977602;28;20455;-83
2022/03/19 15:43:06;;;;;;;4.10;1.60;;;25.70;35.30;;;;;;4977477;28;20484;-83
2022/03/19 15:45:33;;;;;;;3.00;1.60;;;25.60;35.30;;;;;;4977634;28;20467;-84
2022/03/19 15:47:59;;;;;;;6.10;1.53;;;25.50;35.50;;;;;;4977220;28;20473;-82
2022/03/19 15:50:28;;;;;;;6.17;1.67;;;25.50;35.40;;;;;;4977407;28;20449;-87
2022/03/19 15:52:55;;;;;;;4.50;1.53;;;25.50;35.20;;;;;;4977285;28;20480;-80
2022/03/19 15:55:24;;;;;;;4.20;1.70;;;25.50;35.30;;;;;;4977051;28;20452;-80
2022/03/19 15:57:51;;;;;;;2.77;1.30;;;25.50;35.80;;;;;;4976928;28;20441;-80
2022/03/19 16:00:18;;;;;;;2.60;1.27;;;25.60;36.60;;;;;;4977708;28;20445;-80
2022/03/19 16:02:46;;;;;;;2.13;1.63;;;25.70;37.10;;;;;;4976859;28;20492;-81
2022/03/19 16:05:13;;;;;;;1.87;1.00;;;25.70;37.40;;;;;;4977328;28;20446;-83
2022/03/19 16:07:41;;;;;;;1.30;0.90;;;25.80;37.70;;;;;;4976558;28;20464;-80
2022/03/19 16:10:09;;;;;;;1.97;1.07;;;25.90;37.80;;;;;;4976245;28;20457;-80
2022/03/19 16:12:39;;;;;;;1.53;0.90;;;25.90;37.90;;;;;;4976401;28;20450;-84
2022/03/19 16:15:09;;;;;;;1.93;1.40;;;25.90;38.00;;;;;;4976526;28;20811;-80
2022/03/19 16:17:36;;;;;;;2.90;1.03;;;26.00;38.20;;;;;;4976434;28;20444;-79
2022/03/19 16:20:04;;;;;;;1.30;1.20;;;25.90;38.80;;;;;;4976564;28;20442;-86
2022/03/19 16:22:31;;;;;;;1.63;1.07;;;26.00;39.10;;;;;;4977011;28;20499;-85
2022/03/19 16:24:59;;;;;;;6.60;1.20;;;26.00;39.30;;;;;;4977717;28;20445;-85
2022/03/19 16:27:26;;;;;;;2.80;0.90;;;26.00;39.60;;;;;;4977183;28;20452;-85
2022/03/19 16:29:53;;;;;;;2.63;1.30;;;26.10;40.00;;;;;;4976983;28;20453;-88
2022/03/19 16:32:20;;;;;;;1.60;1.20;;;26.10;40.00;;;;;;4977417;28;20449;-86
2022/03/19 16:44:53;;;;;;;3.50;1.27;;;25.50;36.00;;;;;;4976949;28;20409;-85
2022/03/19 16:47:20;;;;;;;7.33;1.87;;;25.30;35.60;;;;;;4976755;28;20445;-93
2022/03/19 16:49:47;;;;;;;6.87;1.30;;;25.20;35.80;;;;;;4977696;28;20501;-85
2022/03/19 16:52:14;;;;;;;5.70;1.10;;;25.30;36.70;;;;;;4978115;28;20453;-84
2022/03/19 16:54:41;;;;;;;3.10;1.50;;;25.30;37.60;;;;;;4978481;28;20453;-90
2022/03/19 16:57:08;;;;;;;2.77;1.37;;;25.40;37.40;;;;;;4977695;28;20456;-84
2022/03/19 16:59:35;;;;;;;3.63;1.40;;;25.50;37.70;;;;;;4977891;28;20457;-91
2022/03/19 17:02:03;;;;;;;3.00;1.30;;;25.50;37.80;;;;;;4977705;28;20488;-90
2022/03/19 17:04:30;;;;;;;2.47;1.40;;;25.70;37.90;;;;;;4977637;28;20448;-84
2022/03/19 17:06:58;;;;;;;1.87;1.47;;;25.70;37.80;;;;;;4977541;28;20454;-84
2022/03/19 17:09:26;;;;;;;2.23;1.23;;;25.80;38.00;;;;;;4977712;28;20453;-84
2022/03/19 17:11:52;;;;;;;4.03;0.90;;;25.80;37.80;;;;;;4977322;28;20473;-84
2022/03/19 17:14:19;;;;;;;2.33;1.00;;;25.90;37.90;;;;;;4977420;28;20446;-84
2022/03/19 17:16:46;;;;;;;2.10;1.00;;;26.00;38.00;;;;;;4977147;28;20445;-91
2022/03/19 17:19:15;;;;;;;4.50;1.10;;;26.00;37.90;;;;;;4976746;28;20449;-88
2022/03/19 17:21:42;;;;;;;3.60;1.27;;;26.00;37.70;;;;;;4977048;28;20485;-85
2022/03/19 17:24:09;;;;;;;4.10;1.37;;;26.00;37.30;;;;;;4981855;28;20450;-91
2022/03/19 17:26:36;;;;;;;2.73;1.10;;;26.00;37.70;;;;;;4982186;28;20449;-84
2022/03/19 17:29:03;;;;;;;6.00;1.70;;;26.00;37.80;;;;;;4977701;28;20449;-84
2022/03/19 17:31:30;;;;;;;2.17;1.10;;;26.00;38.20;;;;;;4978158;28;20449;-92
2022/03/19 17:33:57;;;;;;;1.63;1.13;;;26.10;38.20;;;;;;4976783;28;20442;-84
2022/03/19 17:36:25;;;;;;;1.60;1.00;;;26.10;38.90;;;;;;4976941;28;20955;-84
2022/03/19 17:38:51;;;;;;;3.20;1.23;;;26.10;38.30;;;;;;4977286;28;20452;-84
2022/03/19 17:41:18;;;;;;;1.60;1.10;;;26.10;38.40;;;;;;4976712;28;20795;-90
2022/03/19 17:43:45;;;;;;;1.20;1.00;;;26.20;38.50;;;;;;4976935;28;20472;-90
2022/03/19 17:46:12;;;;;;;3.00;1.47;;;26.20;38.50;;;;;;4976960;28;20438;-85
2022/03/19 17:48:39;;;;;;;2.70;1.00;;;26.20;38.60;;;;;;4976740;28;20512;-84
2022/03/19 17:51:07;;;;;;;3.13;1.30;;;26.20;38.60;;;;;;4978424;28;20446;-91
2022/03/19 17:53:35;;;;;;;2.77;1.27;;;26.20;38.70;;;;;;4977136;28;20566;-83
2022/03/19 17:56:02;;;;;;;1.83;1.00;;;26.20;38.70;;;;;;4977331;28;20544;-85
2022/03/19 17:58:29;;;;;;;2.23;1.30;;;26.20;38.80;;;;;;4975323;28;20451;-90
2022/03/19 18:00:56;;;;;;;1.90;1.00;;;26.20;38.80;;;;;;4976139;28;20456;-84
2022/03/19 18:03:23;;;;;;;2.07;1.07;;;26.20;38.90;;;;;;4976956;28;20600;-85
2022/03/19 18:05:50;;;;;;;1.60;1.03;;;26.20;38.90;;;;;;4981326;28;20433;-86
2022/03/19 18:08:17;;;;;;;1.40;1.10;;;26.20;38.90;;;;;;4984916;28;20459;-84
2022/03/19 18:10:46;;;;;;;1.80;0.90;;;26.30;38.90;;;;;;4982037;28;20456;-91
2022/03/19 18:13:13;;;;;;;1.63;1.17;;;26.30;39.00;;;;;;4984126;28;20500;-84
2022/03/19 18:15:40;;;;;;;1.67;1.00;;;26.30;39.00;;;;;;4976681;28;20465;-86
2022/03/19 18:18:06;;;;;;;2.10;1.10;;;26.30;39.00;;;;;;4977098;28;20473;-84
2022/03/19 18:20:34;;;;;;;4.13;1.10;;;26.30;39.00;;;;;;4976395;28;20451;-84
2022/03/19 18:23:02;;;;;;;1.80;1.00;;;26.30;39.00;;;;;;4976620;28;20489;-93
2022/03/19 18:25:29;;;;;;;1.93;1.00;;;26.30;39.10;;;;;;4975448;28;20453;-91
2022/03/19 18:27:58;;;;;;;1.17;0.90;;;26.30;39.10;;;;;;4975356;28;20452;-92
2022/03/19 18:30:25;;;;;;;1.70;1.30;;;26.40;39.40;;;;;;4975175;28;20446;-85
2022/03/19 18:32:52;;;;;;;1.97;1.20;;;26.40;39.30;;;;;;4975183;28;20987;-85
2022/03/19 18:35:19;;;;;;;1.90;1.20;;;26.40;39.50;;;;;;4975354;28;20454;-93
2022/03/19 18:37:46;;;;;;;1.20;1.00;;;26.40;39.40;;;;;;4975438;28;20532;-91
2022/03/19 18:40:13;;;;;;;2.17;1.00;;;26.50;39.40;;;;;;4975323;28;20445;-85
2022/03/19 18:42:40;;;;;;;2.50;1.40;;;26.50;39.50;;;;;;4977237;28;20995;-86
2022/03/19 18:45:10;;;;;;;1.40;1.10;;;26.50;39.50;;;;;;4979564;28;20456;-84
2022/03/19 18:47:39;;;;;;;1.33;0.90;;;26.50;39.70;;;;;;4979445;28;20556;-87
2022/03/19 18:50:07;;;;;;;2.83;1.10;;;26.50;39.30;;;;;;4978721;28;20456;-85
2022/03/19 18:52:36;;;;;;;1.67;1.10;;;26.50;39.40;;;;;;4979147;28;20822;-85
2022/03/19 18:55:05;;;;;;;2.10;1.03;;;26.60;39.50;;;;;;4978245;28;20441;-84
2022/03/19 18:57:33;;;;;;;1.87;1.30;;;26.60;39.50;;;;;;4978727;28;20457;-89
2022/03/19 18:59:59;;;;;;;1.83;1.10;;;26.60;39.50;;;;;;4978656;28;20468;-86
2022/03/19 19:02:28;;;;;;;2.00;1.00;;;26.60;40.20;;;;;;4978280;28;20480;-85
2022/03/19 19:04:56;;;;;;;1.20;0.97;;;26.60;39.60;;;;;;4978617;28;20504;-85
2022/03/19 19:07:23;;;;;;;2.57;1.17;;;26.60;39.60;;;;;;4978823;28;20457;-80
2022/03/19 19:09:50;;;;;;;1.70;1.00;;;26.50;39.90;;;;;;4978117;28;21047;-86
2022/03/19 19:12:19;;;;;;;1.60;1.00;;;26.50;40.40;;;;;;4978521;28;20461;-92
2022/03/19 19:14:46;;;;;;;1.23;1.00;;;26.50;39.90;;;;;;4978898;28;20449;-85
2022/03/19 19:17:13;;;;;;;2.80;1.40;;;26.60;40.00;;;;;;4978795;28;20452;-92
2022/03/19 19:19:42;;;;;;;2.83;1.80;;;26.60;39.90;;;;;;4978302;28;20453;-90
2022/03/19 19:22:08;;;;;;;2.30;1.77;;;26.60;39.90;;;;;;4978453;28;20473;-85
2022/03/19 19:24:37;;;;;;;1.90;1.50;;;26.60;40.00;;;;;;4978192;28;20473;-84
2022/03/19 19:27:05;;;;;;;3.43;1.40;;;26.60;39.60;;;;;;4977851;28;20457;-83
2022/03/19 19:29:31;;;;;;;1.47;1.10;;;26.60;40.10;;;;;;4979419;28;20471;-94
2022/03/19 19:31:58;;;;;;;3.10;1.30;;;26.60;40.20;;;;;;4978576;28;20451;-93
2022/03/19 19:34:25;;;;;;;1.50;1.23;;;26.60;40.20;;;;;;4978702;28;20437;-85
2022/03/19 19:36:53;;;;;;;1.80;1.10;;;26.70;40.30;;;;;;4978551;28;20449;-86
2022/03/19 19:39:20;;;;;;;1.90;1.27;;;26.80;40.40;;;;;;4978211;28;20453;-82
2022/03/19 19:41:47;;;;;;;1.80;1.60;;;26.70;40.30;;;;;;4978048;28;20446;-92
2022/03/19 19:44:14;;;;;;;2.40;1.10;;;26.70;40.40;;;;;;4977961;28;20489;-83
2022/03/19 19:46:41;;;;;;;1.60;1.13;;;26.70;40.50;;;;;;4977718;28;20445;-91
2022/03/19 19:49:07;;;;;;;1.90;1.17;;;26.70;40.40;;;;;;4977616;28;20485;-83
2022/03/19 19:51:34;;;;;;;2.30;1.07;;;26.70;40.40;;;;;;4977431;28;20460;-83
2022/03/19 19:54:02;;;;;;;1.60;1.10;;;26.70;40.50;;;;;;4976201;28;20464;-82
2022/03/19 19:57:56;;;;;;;3.87;1.57;;;26.70;40.50;;;;;;4977540;28;20457;-94
2022/03/19 19:59:16;;;;;;;2.80;1.23;;;26.70;40.50;;;;;;4977473;28;20862;-82
2022/03/19 20:01:43;;;;;;;1.80;1.10;;;26.70;40.60;;;;;;4978249;28;20448;-92
2022/03/19 20:04:10;;;;;;;2.83;1.30;;;26.70;40.60;;;;;;4978807;28;20520;-82
2022/03/19 20:09:25;;;;;;;1.67;1.30;;;26.80;40.80;;;;;;4977224;28;20859;-94
2022/03/19 20:11:52;;;;;;;1.83;1.27;;;26.80;40.60;;;;;;4980574;28;20445;-94
2022/03/19 20:14:18;;;;;;;2.60;1.20;;;26.80;40.70;;;;;;4993403;28;20453;-83
2022/03/19 20:16:45;;;;;;;7.47;1.10;;;26.80;40.60;;;;;;4989226;28;20457;-83
2022/03/19 20:19:13;;;;;;;1.50;0.93;;;26.80;40.70;;;;;;4976972;28;20446;-95
2022/03/19 20:21:40;;;;;;;3.37;1.20;;;26.80;40.60;;;;;;4977266;28;20457;-86
2022/03/19 20:24:08;;;;;;;2.33;1.20;;;26.80;40.70;;;;;;4977264;28;20489;-84
2022/03/19 20:26:36;;;;;;;4.90;1.27;;;26.80;40.90;;;;;;4978064;28;20850;-83
2022/03/19 20:29:03;;;;;;;3.87;1.40;;;26.80;40.90;;;;;;4976769;28;20456;-85
2022/03/19 20:31:29;;;;;;;1.40;1.00;;;26.80;40.90;;;;;;4976522;28;20445;-84
2022/03/19 20:33:56;;;;;;;1.57;1.20;;;26.80;40.80;;;;;;4977115;28;20445;-83
2022/03/19 20:36:23;;;;;;;1.17;0.90;;;27.00;40.80;;;;;;4976912;28;20453;-90
2022/03/19 20:38:50;;;;;;;1.70;1.10;;;26.90;40.80;;;;;;4977068;28;20952;-93
2022/03/19 20:41:17;;;;;;;1.30;1.10;;;26.90;40.90;;;;;;4976249;28;20456;-84
2022/03/19 20:43:45;;;;;;;1.60;1.00;;;26.90;40.90;;;;;;4976472;28;20493;-83
2022/03/19 20:46:12;;;;;;;1.57;1.20;;;26.90;41.00;;;;;;4976896;28;20561;-84
2022/03/19 20:48:38;;;;;;;1.23;1.00;;;26.90;40.90;;;;;;4976387;28;21019;-94
2022/03/19 20:51:06;;;;;;;1.47;1.20;;;26.90;41.50;;;;;;4976254;28;20437;-86
2022/03/19 20:53:33;;;;;;;3.30;1.20;;;26.90;40.80;;;;;;4976159;28;20460;-84
2022/03/19 20:55:59;;;;;;;3.10;1.27;;;26.90;40.80;;;;;;4976299;28;20454;-91
2022/03/19 20:58:28;;;;;;;2.03;1.20;;;26.90;41.10;;;;;;4976469;28;20445;-85
2022/03/19 21:00:56;;;;;;;2.13;1.50;;;26.90;41.10;;;;;;4976352;28;20523;-84
2022/03/19 21:03:23;;;;;;;1.73;1.00;;;26.90;40.80;;;;;;4976286;28;20579;-85
2022/03/19 21:05:49;;;;;;;2.40;1.00;;;26.90;40.90;;;;;;4976121;28;20528;-94
2022/03/19 21:08:16;;;;;;;1.93;1.30;;;26.90;40.90;;;;;;4975974;28;20931;-85
2022/03/19 21:11:38;;;;;;;1.83;1.07;;;26.90;40.90;;;;;;4976045;28;20449;-84
2022/03/19 21:13:30;;;;;;;2.90;1.90;;;26.80;41.50;;;;;;4975934;28;20460;-85
2022/03/19 21:16:00;;;;;;;1.63;1.33;;;26.80;40.80;;;;;;4958633;28;20488;-85
2022/03/19 21:18:27;;;;;;;3.00;1.17;;;26.80;40.80;;;;;;4975789;28;20456;-84
2022/03/19 21:20:54;;;;;;;1.60;1.50;;;26.80;40.80;;;;;;4975902;28;20504;-84
2022/03/19 21:23:20;;;;;;;1.40;1.30;;;26.80;40.80;;;;;;4976000;28;20489;-95
2022/03/19 21:25:47;;;;;;;1.40;1.27;;;26.80;40.80;;;;;;4975738;28;20468;-95
2022/03/19 21:28:14;;;;;;;1.60;1.40;;;26.80;40.80;;;;;;4975848;28;20449;-85
2022/03/19 21:30:41;;;;;;;2.37;1.30;;;26.80;40.80;;;;;;4975353;28;20959;-85
2022/03/19 21:33:09;;;;;;;1.87;1.50;;;26.70;40.80;;;;;;4975739;28;20787;-84
2022/03/19 21:35:37;;;;;;;1.23;1.10;;;26.70;40.80;;;;;;4977099;28;20916;-85
2022/03/19 21:38:04;;;;;;;1.33;1.23;;;26.70;40.80;;;;;;4976711;28;20452;-84
2022/03/19 21:43:16;;;;;;;1.80;1.07;;;26.70;40.80;;;;;;4975395;28;20462;-85
2022/03/19 21:45:44;;;;;;;2.13;1.30;;;26.70;40.80;;;;;;4975495;28;20449;-86
2022/03/19 21:48:13;;;;;;;2.77;1.40;;;26.90;40.80;;;;;;4975023;28;20513;-84
2022/03/19 21:50:41;;;;;;;2.13;1.37;;;26.70;40.70;;;;;;4975293;28;20449;-85
2022/03/19 21:53:08;;;;;;;1.97;1.40;;;26.70;40.70;;;;;;4975302;28;20798;-84
2022/03/19 21:55:35;;;;;;;1.53;1.27;;;26.70;40.70;;;;;;4975515;28;20441;-84
2022/03/19 21:58:04;;;;;;;1.47;1.37;;;26.80;40.70;;;;;;4975337;28;20437;-84
2022/03/19 22:00:30;;;;;;;1.50;1.40;;;26.70;40.60;;;;;;4975194;28;20441;-85
2022/03/19 22:02:58;;;;;;;1.73;1.63;;;26.90;40.70;;;;;;4975299;28;20477;-85
2022/03/19 22:05:26;;;;;;;1.83;1.37;;;26.70;40.70;;;;;;4975689;28;20457;-84
2022/03/19 22:07:53;;;;;;;1.70;1.40;;;26.70;40.60;;;;;;4974725;28;20460;-84
2022/03/19 22:10:20;;;;;;;1.57;1.47;;;26.70;40.60;;;;;;4975048;28;20952;-84
2022/03/19 22:12:47;;;;;;;2.13;1.83;;;26.70;40.50;;;;;;4974675;28;20441;-85
2022/03/19 22:15:13;;;;;;;2.03;1.60;;;26.80;40.60;;;;;;4975300;28;20452;-84
2022/03/19 22:17:40;;;;;;;1.63;1.50;;;26.80;40.60;;;;;;4974459;28;20449;-84
2022/03/19 22:20:11;;;;;;;1.70;1.60;;;26.80;40.60;;;;;;4974984;28;20449;-95
2022/03/19 22:22:40;;;;;;;1.40;1.13;;;26.80;40.50;;;;;;4975598;28;20445;-84
2022/03/19 22:25:10;;;;;;;1.73;1.63;;;26.80;40.40;;;;;;4975064;28;20855;-86
2022/03/19 22:27:38;;;;;;;1.93;1.80;;;26.70;40.40;;;;;;4974702;28;20488;-84
2022/03/19 22:30:06;;;;;;;2.00;1.73;;;26.90;40.50;;;;;;4974914;28;20476;-85
2022/03/19 22:32:32;;;;;;;2.13;1.90;;;26.70;40.30;;;;;;4974815;28;20453;-85
2022/03/19 22:34:59;;;;;;;1.43;1.33;;;26.70;40.30;;;;;;4974957;28;20452;-95
2022/03/19 22:37:26;;;;;;;2.37;1.60;;;26.70;40.40;;;;;;4974563;28;20441;-85
2022/03/19 22:39:54;;;;;;;1.80;1.70;;;26.70;40.40;;;;;;4975071;28;20461;-84
2022/03/19 22:42:23;;;;;;;1.60;1.50;;;26.70;40.30;;;;;;4975021;28;20445;-95
2022/03/19 22:44:50;;;;;;;1.80;1.70;;;26.70;40.30;;;;;;4974976;28;20559;-95
2022/03/19 22:47:17;;;;;;;2.53;2.33;;;26.70;40.30;;;;;;4974657;28;20441;-88
2022/03/19 22:49:44;;;;;;;2.30;2.10;;;26.70;40.30;;;;;;4974729;28;20800;-85
2022/03/19 22:52:11;;;;;;;1.90;1.80;;;26.70;40.30;;;;;;4974732;28;20799;-84
2022/03/19 22:54:40;;;;;;;2.57;2.37;;;26.70;40.20;;;;;;4974709;28;20460;-95
2022/03/19 22:57:08;;;;;;;1.97;1.87;;;26.60;40.20;;;;;;4978123;28;20448;-84
2022/03/19 22:59:35;;;;;;;2.10;2.00;;;26.60;40.20;;;;;;4977322;28;20530;-84
2022/03/19 23:02:02;;;;;;;2.83;2.63;;;26.60;40.20;;;;;;4977645;28;20453;-84
2022/03/19 23:04:28;;;;;;;1.73;1.63;;;26.60;40.20;;;;;;4984543;28;20512;-93
2022/03/19 23:06:55;;;;;;;2.70;2.50;;;26.50;40.20;;;;;;4974781;28;20806;-93
2022/03/19 23:09:22;;;;;;;2.60;2.40;;;26.50;40.20;;;;;;4975425;28;20811;-85
2022/03/19 23:11:50;;;;;;;2.20;2.10;;;26.50;40.20;;;;;;4974724;28;20452;-84
2022/03/19 23:14:20;;;;;;;2.53;2.33;;;26.50;40.20;;;;;;4978689;28;20485;-87
2022/03/19 23:16:47;;;;;;;2.50;2.33;;;26.50;40.20;;;;;;4979900;28;20457;-84
2022/03/19 23:19:14;;;;;;;2.20;2.03;;;26.50;40.20;;;;;;4978255;28;20456;-92
2022/03/19 23:21:42;;;;;;;2.30;2.00;;;26.50;40.20;;;;;;4974607;28;20441;-89
2022/03/19 23:24:09;;;;;;;2.73;2.53;;;26.40;40.20;;;;;;4974820;28;20492;-85
2022/03/19 23:26:36;;;;;;;2.30;2.20;;;26.40;40.20;;;;;;4960543;28;20849;-84
2022/03/19 23:29:06;;;;;;;2.30;2.10;;;26.40;40.20;;;;;;4982531;28;20444;-82
2022/03/19 23:31:35;;;;;;;2.40;2.20;;;26.40;40.20;;;;;;4983873;28;20437;-86
2022/03/19 23:34:02;;;;;;;1.87;1.77;;;26.40;40.20;;;;;;4982295;28;20432;-84
2022/03/19 23:36:31;;;;;;;2.03;1.93;;;26.40;40.30;;;;;;4981183;28;20452;-84
2022/03/19 23:38:59;;;;;;;2.40;2.30;;;26.40;40.30;;;;;;4980015;28;20456;-83
2022/03/19 23:41:28;;;;;;;2.33;2.23;;;26.40;40.30;;;;;;4979536;28;20453;-84
2022/03/19 23:43:55;;;;;;;2.23;2.03;;;26.50;40.30;;;;;;4980927;28;20481;-93
2022/03/19 23:46:26;;;;;;;3.47;3.20;;;26.30;40.30;;;;;;4981253;28;20441;-83
2022/03/19 23:48:57;;;;;;;2.27;2.17;;;26.30;40.30;;;;;;4982609;28;20959;-87
2022/03/19 23:51:26;;;;;;;3.23;3.03;;;26.30;40.30;;;;;;4982205;28;20438;-83
2022/03/19 23:53:53;;;;;;;2.43;2.23;;;26.30;40.30;;;;;;4983367;28;20449;-83
2022/03/19 23:56:20;;;;;;;2.20;2.10;;;26.20;40.20;;;;;;4979086;28;20454;-93
2022/03/19 23:58:46;;;;;;;2.50;2.30;;;26.20;40.20;;;;;;4977498;28;20450;-84
